Williston, SC

10:03 AM EDT on August 22, 2014 (GMT -0400)
Loose Rock | Change Station
CLOSE
Current Station
Personal Weather Station
Location: Williston, SC
Elevation: 309 ft
Nearby Weather Stations

Elev 309 ft 33.47 °N, 81.40 °W | Updated 14 seconds ago

Clear
Clear
87.1 °F
Feels Like 95 °F
N
1.0
Wind Variable Wind from SW
Gusts 7.0 mph

Today
High -- | Low -- °F
--% Chance of Precip.
Yesterday
High -- | Low -- °F
Precip. -- in
6:53 AM 8:03 PM
Waning Crescent, 8% visible
Pressure 30.11 in
Visibility 10.0 miles
Clouds Clear
Heat Index 95 °F
Dew Point 74 °F
Humidity 65%
Rainfall 0.00 in
Snow Depth Not available.
UV 2.5 out of 12
Pollen 8.00 out of 12
Ozone Good
PM2.5 Moderate
Flu Activity Not available.
METAR KAIK 221355Z AUTO 29005KT 10SM CLR 30/23 A3011 RMK AO2 PNO

More Conditions Fewer Conditions

Pressure 30.11 in
Visibility 10.0 miles
Clouds Clear
Heat Index 95 °F
Dew Point 74 °F
Humidity 65%
Rainfall 0.00 in
Snow Depth Not available.
UV 2.5 out of 12
Pollen 8.00 out of 12
Ozone Good
PM2.5 Moderate
Flu Activity Not available.
METAR KAIK 221355Z AUTO 29005KT 10SM CLR 30/23 A3011 RMK AO2 PNO

More Conditions Fewer Conditions

10-Day Weather Forecast

Almanac

Astronomy

Aug. 22, 2014 Rise Set
Actual Time 6:53 AM EDT 8:03 PM EDT
Civil Twilight 6:27 AM EDT 8:29 PM EDT
Nautical Twilight 5:56 AM EDT 8:59 PM EDT
Astronomical Twilight 5:24 AM EDT 9:31 PM EDT
Moon 4:18 AM EDT 6:08 PM EDT
Length of Visible Light 14h 02m
Length of Day
13h 10m
Tomorrow will be 1m 53s shorter.
Waning Crescent, 8% of the Moon is Illuminated
Today
Waning Crescent
Aug 25
New
Sep 2
First Quarter
Sep 8
Full
Sep 15
Last Quarter

Today's Extremes

State Highs State Lows

Community

WunderPhotos

Upload Photos

1,746,171 photos uploaded!

Nearby

Air Quality

  Air Quality AQ Index Pollutant
Yesterday Good
OZONE
Yesterday Good
PM2.5
Current Moderate
PM2.5
Current Good
OZONE
Friday Good
OZONE

Snow Depth

Station Depth Elevation
No new snow has been reported.

Earthquake Activity

City Distance Mag. Time & Date
No recent earthquake activity has been reported nearby.
Minimum magnitude displayed is 2.5.

Coastal Water Temperatures

Place Temperature
No Stations Reporting

Nearby Weather Stations